createdAt,value
2018-12-27T00:01:16.128Z,7.10
2018-12-27T00:04:16.419Z,7.00
2018-12-27T00:07:16.760Z,7.00
2018-12-27T00:10:16.137Z,7.00
2018-12-27T00:13:03.156Z,7.00
2018-12-27T00:16:09.734Z,7.00
2018-12-27T00:19:09.127Z,7.00
2018-12-27T00:22:09.427Z,6.90
2018-12-27T00:25:09.592Z,6.90
2018-12-27T00:28:08.986Z,6.90
2018-12-27T00:31:08.468Z,6.90
2018-12-27T00:34:08.618Z,6.90
2018-12-27T00:37:09.083Z,6.90
2018-12-27T00:40:09.334Z,6.80
2018-12-27T00:43:09.866Z,6.80
2018-12-27T00:46:12.985Z,6.90
2018-12-27T00:49:13.296Z,6.90
2018-12-27T00:52:11.137Z,6.90
2018-12-27T00:55:20.719Z,6.90
2018-12-27T00:58:20.282Z,6.90
2018-12-27T01:01:20.379Z,6.80
2018-12-27T01:04:20.507Z,6.80
2018-12-27T01:07:20.625Z,6.80
2018-12-27T01:10:20.860Z,6.80
2018-12-27T01:13:21.158Z,6.80
2018-12-27T01:16:20.611Z,6.80
2018-12-27T01:19:20.000Z,6.70
2018-12-27T01:22:19.497Z,6.70
2018-12-27T01:25:19.726Z,6.80
2018-12-27T01:28:20.152Z,6.80
2018-12-27T01:31:20.411Z,6.70
2018-12-27T01:34:20.784Z,6.80
2018-12-27T01:37:21.043Z,6.70
2018-12-27T01:40:20.520Z,6.70
2018-12-27T01:43:20.666Z,6.70
2018-12-27T01:46:20.892Z,6.70
2018-12-27T01:49:21.314Z,6.70
2018-12-27T01:52:20.928Z,6.70
2018-12-27T01:55:21.056Z,6.60
2018-12-27T01:58:21.169Z,6.60
2018-12-27T02:01:21.395Z,6.50
2018-12-27T02:04:20.736Z,6.40
2018-12-27T02:07:20.574Z,6.40
2018-12-27T02:10:20.526Z,6.40
2018-12-27T02:13:19.942Z,6.40
2018-12-27T02:16:19.513Z,6.40
2018-12-27T02:19:19.695Z,6.40
2018-12-27T02:22:19.056Z,6.40
2018-12-27T02:25:18.799Z,6.40
2018-12-27T02:28:16.496Z,6.40
2018-12-27T02:31:26.612Z,6.30
2018-12-27T02:34:26.617Z,6.30
2018-12-27T02:37:26.146Z,6.30
2018-12-27T02:40:26.400Z,6.30
2018-12-27T02:43:25.856Z,6.20
2018-12-27T02:46:25.253Z,6.20
2018-12-27T02:49:25.639Z,6.20
2018-12-27T02:52:25.842Z,6.20
2018-12-27T02:55:25.338Z,6.20
2018-12-27T02:58:25.032Z,6.20
2018-12-27T03:01:24.401Z,6.20
2018-12-27T03:04:24.573Z,6.30
2018-12-27T03:07:23.987Z,6.20
2018-12-27T03:10:24.534Z,6.20
2018-12-27T03:13:24.695Z,6.20
2018-12-27T03:16:24.096Z,6.10
2018-12-27T03:19:24.451Z,6.20
2018-12-27T03:22:24.818Z,6.10
2018-12-27T03:25:24.161Z,6.10
2018-12-27T03:28:11.286Z,6.10
2018-12-27T03:30:58.630Z,6.10
2018-12-27T03:33:59.175Z,6.10
2018-12-27T03:36:59.424Z,6.00
2018-12-27T03:39:59.831Z,6.00
2018-12-27T03:43:00.043Z,6.00
2018-12-27T03:45:59.554Z,5.90
2018-12-27T03:48:59.066Z,6.00
2018-12-27T03:51:59.162Z,5.90
2018-12-27T03:54:59.340Z,5.90
2018-12-27T03:57:59.603Z,5.90
2018-12-27T04:01:00.035Z,5.90
2018-12-27T04:04:01.519Z,5.90
2018-12-27T04:06:48.789Z,5.90
2018-12-27T04:09:55.428Z,5.90
2018-12-27T04:12:55.660Z,5.90
2018-12-27T04:15:55.064Z,5.90
2018-12-27T04:18:54.385Z,5.90
2018-12-27T04:21:54.801Z,5.80
2018-12-27T04:24:55.104Z,5.80
2018-12-27T04:27:54.755Z,5.80
2018-12-27T04:30:54.968Z,5.80
2018-12-27T04:33:55.309Z,5.80
2018-12-27T04:36:55.514Z,5.80
2018-12-27T04:39:55.095Z,5.90
2018-12-27T04:42:55.345Z,5.80
2018-12-27T04:45:55.571Z,5.80
2018-12-27T04:48:56.116Z,5.80
2018-12-27T04:51:56.373Z,5.80
2018-12-27T04:54:56.306Z,5.90
2018-12-27T04:57:56.611Z,5.90
2018-12-27T05:00:56.108Z,5.80
2018-12-27T05:03:56.401Z,5.80
2018-12-27T05:06:56.761Z,5.80
2018-12-27T05:09:56.243Z,5.80
2018-12-27T05:12:56.507Z,5.90
2018-12-27T05:15:56.681Z,5.90
2018-12-27T05:18:57.020Z,5.80
2018-12-27T05:21:57.309Z,5.80
2018-12-27T05:24:56.802Z,5.80
2018-12-27T05:27:56.919Z,5.80
2018-12-27T05:30:56.519Z,5.80
2018-12-27T05:33:56.784Z,5.80
2018-12-27T05:36:56.204Z,5.80
2018-12-27T05:39:56.525Z,5.80
2018-12-27T05:42:56.568Z,5.80
2018-12-27T05:45:56.923Z,5.80
2018-12-27T05:48:56.273Z,5.80
2018-12-27T05:51:56.479Z,5.80
2018-12-27T05:55:00.344Z,5.80
2018-12-27T05:58:00.084Z,5.80
2018-12-27T06:00:59.732Z,5.80
2018-12-27T06:03:59.772Z,5.80
2018-12-27T06:07:03.037Z,5.80
2018-12-27T06:10:02.393Z,5.80
2018-12-27T06:13:02.404Z,5.80
2018-12-27T06:16:03.007Z,5.80
2018-12-27T06:19:03.089Z,5.80
2018-12-27T06:22:03.320Z,5.80
2018-12-27T06:25:02.973Z,5.80
2018-12-27T06:28:02.440Z,5.70
2018-12-27T06:31:02.729Z,5.90
2018-12-27T06:34:04.292Z,5.90
2018-12-27T06:37:04.250Z,5.90
2018-12-27T06:39:51.371Z,5.90
2018-12-27T06:42:57.911Z,5.90
2018-12-27T06:45:57.615Z,5.80
2018-12-27T06:48:57.948Z,5.80
2018-12-27T06:51:58.170Z,5.90
2018-12-27T06:54:58.382Z,5.90
2018-12-27T06:57:59.662Z,5.90
2018-12-27T07:00:46.688Z,5.90
2018-12-27T07:03:53.496Z,5.90
2018-12-27T07:06:53.508Z,5.90
2018-12-27T07:09:52.916Z,5.90
2018-12-27T07:12:52.585Z,6.00
2018-12-27T07:15:52.811Z,6.00
2018-12-27T07:18:53.138Z,6.00
2018-12-27T07:21:52.849Z,6.00
2018-12-27T07:24:52.199Z,6.00
2018-12-27T07:27:51.559Z,6.00
2018-12-27T07:30:51.780Z,5.90
2018-12-27T07:33:51.580Z,5.90
2018-12-27T07:36:52.106Z,5.90
2018-12-27T07:39:52.070Z,5.90
2018-12-27T07:42:52.321Z,5.90
2018-12-27T07:45:51.868Z,5.90
2018-12-27T07:48:52.173Z,5.90
2018-12-27T07:51:51.660Z,6.00
2018-12-27T07:54:52.175Z,6.00
2018-12-27T07:57:52.539Z,6.00
2018-12-27T08:00:53.204Z,6.00
2018-12-27T08:03:53.450Z,6.00
2018-12-27T08:06:53.681Z,6.10
2018-12-27T08:09:53.696Z,6.10
2018-12-27T08:12:53.283Z,6.00
2018-12-27T08:15:53.627Z,6.10
2018-12-27T08:18:53.120Z,6.10
2018-12-27T08:21:53.415Z,6.00
2018-12-27T08:24:52.931Z,6.00
2018-12-27T08:27:53.252Z,6.00
2018-12-27T08:30:40.243Z,6.00
2018-12-27T08:33:27.179Z,6.00
2018-12-27T08:36:14.194Z,6.00
2018-12-27T08:39:01.444Z,6.00
2018-12-27T08:42:03.964Z,6.10
2018-12-27T08:44:51.050Z,6.00
2018-12-27T08:47:58.099Z,6.00
2018-12-27T08:50:58.093Z,6.00
2018-12-27T08:53:58.768Z,6.00
2018-12-27T08:57:03.353Z,6.10
2018-12-27T09:00:07.342Z,6.00
2018-12-27T09:03:09.849Z,6.00
2018-12-27T09:06:10.209Z,6.00
2018-12-27T09:09:10.912Z,6.10
2018-12-27T09:12:11.038Z,6.10
2018-12-27T09:15:14.293Z,6.00
2018-12-27T09:18:14.832Z,6.10
2018-12-27T09:21:14.646Z,6.10
2018-12-27T09:24:14.925Z,6.10
2018-12-27T09:27:18.409Z,6.10
2018-12-27T09:30:19.013Z,6.10
2018-12-27T09:33:19.376Z,6.10
2018-12-27T09:36:19.670Z,6.10
2018-12-27T09:39:19.148Z,6.20
2018-12-27T09:42:19.533Z,6.10
2018-12-27T09:45:19.801Z,6.10
2018-12-27T09:48:20.708Z,6.10
2018-12-27T09:51:23.871Z,6.10
2018-12-27T09:54:24.203Z,6.20
2018-12-27T09:57:24.410Z,6.20
2018-12-27T10:00:24.261Z,6.20
2018-12-27T10:03:23.533Z,6.20
2018-12-27T10:06:23.156Z,6.20
2018-12-27T10:09:23.325Z,6.20
2018-12-27T10:12:23.637Z,6.20
2018-12-27T10:15:23.163Z,6.30
2018-12-27T10:18:22.615Z,6.30
2018-12-27T10:21:22.340Z,6.30
2018-12-27T10:24:22.493Z,6.30
2018-12-27T10:27:22.750Z,6.30
2018-12-27T10:30:22.862Z,6.30
2018-12-27T10:33:25.288Z,6.30
2018-12-27T10:36:25.867Z,6.30
2018-12-27T10:39:25.936Z,6.30
2018-12-27T10:42:26.269Z,6.30
2018-12-27T10:45:26.769Z,6.30
2018-12-27T10:48:27.071Z,6.30
2018-12-27T10:51:27.478Z,6.30
2018-12-27T10:54:27.117Z,6.20
2018-12-27T10:57:27.909Z,6.20
2018-12-27T11:00:30.849Z,6.20
2018-12-27T11:03:30.897Z,6.20
2018-12-27T11:06:30.675Z,6.20
2018-12-27T11:09:31.082Z,6.20
2018-12-27T11:12:31.178Z,6.30
2018-12-27T11:15:31.840Z,6.30
2018-12-27T11:18:18.967Z,6.20
2018-12-27T11:21:25.558Z,6.20
2018-12-27T11:24:25.521Z,6.20
2018-12-27T11:27:25.195Z,6.20
2018-12-27T11:30:25.357Z,6.20
2018-12-27T11:33:24.972Z,6.20
2018-12-27T11:36:25.310Z,6.30
2018-12-27T11:39:25.488Z,6.30
2018-12-27T11:42:25.909Z,6.30
2018-12-27T11:45:26.126Z,6.30
2018-12-27T11:48:25.817Z,6.30
2018-12-27T11:51:25.776Z,6.30
2018-12-27T11:54:25.922Z,6.30
2018-12-27T11:57:26.135Z,6.30
2018-12-27T12:00:25.504Z,6.20
2018-12-27T12:03:23.287Z,6.30
2018-12-27T12:06:33.746Z,6.30
2018-12-27T12:09:34.112Z,6.30
2018-12-27T12:12:34.316Z,6.30
2018-12-27T12:15:34.100Z,6.30
2018-12-27T12:18:34.559Z,6.30
2018-12-27T12:21:34.531Z,6.30
2018-12-27T12:24:34.726Z,6.30
2018-12-27T12:27:34.195Z,6.30
2018-12-27T12:30:34.347Z,6.40
2018-12-27T12:33:34.699Z,6.40
2018-12-27T12:36:35.747Z,6.40
2018-12-27T12:39:35.220Z,6.40
2018-12-27T12:42:32.965Z,6.40
2018-12-27T12:45:50.625Z,6.40
2018-12-27T12:48:50.779Z,6.40
2018-12-27T12:51:50.860Z,6.40
2018-12-27T12:54:50.408Z,6.40
2018-12-27T13:00:53.141Z,6.50
2018-12-27T13:03:52.493Z,6.50
2018-12-27T13:06:39.623Z,6.50
2018-12-27T13:09:46.665Z,6.50
2018-12-27T13:12:46.601Z,6.50
2018-12-27T13:15:47.028Z,6.60
2018-12-27T13:18:47.550Z,6.60
2018-12-27T13:21:47.783Z,6.50
2018-12-27T13:24:47.952Z,6.60
2018-12-27T13:27:47.344Z,6.50
2018-12-27T13:30:46.893Z,6.60
2018-12-27T13:33:47.251Z,6.60
2018-12-27T13:36:47.471Z,6.70
2018-12-27T13:39:46.975Z,6.70
2018-12-27T13:42:47.303Z,6.70
2018-12-27T13:45:49.760Z,6.70
2018-12-27T13:48:53.439Z,6.70
2018-12-27T13:51:41.260Z,6.70
2018-12-27T13:54:47.923Z,6.80
2018-12-27T13:57:34.937Z,6.80
2018-12-27T14:00:41.712Z,6.80
2018-12-27T14:03:41.872Z,6.80
2018-12-27T14:06:42.431Z,6.80
2018-12-27T14:09:42.490Z,6.80
2018-12-27T14:12:46.915Z,6.80
2018-12-27T14:15:50.365Z,6.80
2018-12-27T14:18:49.812Z,6.80
2018-12-27T14:21:49.256Z,6.80
2018-12-27T14:24:57.873Z,6.80
2018-12-27T14:27:54.005Z,6.70
2018-12-27T14:30:53.435Z,6.80
2018-12-27T14:33:54.391Z,6.80
2018-12-27T14:36:54.748Z,6.80
2018-12-27T14:39:57.512Z,6.70
2018-12-27T14:42:58.180Z,6.80
2018-12-27T14:48:48.625Z,6.70
2018-12-27T14:51:55.253Z,6.70
2018-12-27T14:54:55.424Z,6.70
2018-12-27T14:57:55.372Z,6.70
2018-12-27T15:00:55.534Z,6.70
2018-12-27T15:03:55.982Z,6.70
2018-12-27T15:06:56.583Z,6.70
2018-12-27T15:09:42.224Z,6.70
2018-12-27T15:12:27.779Z,6.70
2018-12-27T15:15:13.663Z,6.70
2018-12-27T15:17:58.854Z,6.70
2018-12-27T15:20:44.217Z,6.70
2018-12-27T15:23:29.976Z,6.70
2018-12-27T15:26:15.776Z,6.70
2018-12-27T15:29:02.277Z,6.70
2018-12-27T15:31:48.076Z,6.70
2018-12-27T15:34:34.034Z,6.70
2018-12-27T15:37:19.398Z,6.70
2018-12-27T15:40:05.739Z,6.70
2018-12-27T15:42:51.854Z,6.70
2018-12-27T15:45:37.532Z,6.70
2018-12-27T15:48:23.104Z,6.70
2018-12-27T15:51:08.599Z,6.70
2018-12-27T15:53:54.527Z,6.70
2018-12-27T15:56:40.368Z,6.70
2018-12-27T15:59:25.895Z,6.70
2018-12-27T16:02:11.751Z,6.70
2018-12-27T16:04:57.296Z,6.70
2018-12-27T16:07:42.539Z,6.70
2018-12-27T16:10:28.050Z,6.70
2018-12-27T16:13:13.782Z,6.80
2018-12-27T16:15:59.407Z,6.80
2018-12-27T16:18:44.972Z,6.70
2018-12-27T16:21:31.062Z,6.80
2018-12-27T16:24:16.605Z,6.80
2018-12-27T16:27:02.667Z,6.70
2018-12-27T16:29:48.472Z,6.70
2018-12-27T16:32:34.012Z,6.70
2018-12-27T16:35:19.508Z,6.70
2018-12-27T16:38:04.781Z,6.70
2018-12-27T16:40:50.580Z,6.70
2018-12-27T16:43:35.929Z,6.70
2018-12-27T16:46:21.701Z,6.60
2018-12-27T16:49:07.806Z,6.70
2018-12-27T16:51:53.599Z,6.60
2018-12-27T16:54:39.303Z,6.60
2018-12-27T16:57:25.203Z,6.70
2018-12-27T17:00:11.042Z,6.60
2018-12-27T17:02:56.846Z,6.70
2018-12-27T17:05:42.430Z,6.60
2018-12-27T17:08:27.616Z,6.60
2018-12-27T17:11:13.246Z,6.70
2018-12-27T17:13:59.073Z,6.60
2018-12-27T17:16:44.963Z,6.60
2018-12-27T17:19:32.629Z,6.60
2018-12-27T17:22:18.174Z,6.50
2018-12-27T17:25:03.926Z,6.50
2018-12-27T17:27:49.338Z,6.50
2018-12-27T17:30:35.557Z,6.50
2018-12-27T17:33:20.968Z,6.60
2018-12-27T17:36:06.959Z,6.60
2018-12-27T17:38:52.407Z,6.60
2018-12-27T17:41:37.988Z,6.50
2018-12-27T17:44:23.723Z,6.50
2018-12-27T17:47:09.343Z,6.60
2018-12-27T17:49:55.083Z,6.50
2018-12-27T17:52:40.194Z,6.60
2018-12-27T17:55:25.797Z,6.50
2018-12-27T17:58:11.289Z,6.60
2018-12-27T18:00:56.995Z,6.60
2018-12-27T18:03:42.414Z,6.60
2018-12-27T18:06:28.345Z,6.50
2018-12-27T18:09:14.144Z,6.60
2018-12-27T18:12:00.022Z,6.70
2018-12-27T18:14:52.943Z,6.60
2018-12-27T18:17:38.852Z,6.60
2018-12-27T18:20:24.621Z,6.60
2018-12-27T18:23:10.371Z,6.60
2018-12-27T18:25:55.850Z,6.60
2018-12-27T18:28:41.378Z,6.50
2018-12-27T18:31:26.729Z,6.60
2018-12-27T18:34:12.249Z,6.60
2018-12-27T18:36:58.170Z,6.50
2018-12-27T18:39:44.026Z,6.50
2018-12-27T18:42:29.743Z,6.60
2018-12-27T18:45:15.322Z,6.50
2018-12-27T18:48:02.500Z,6.50
2018-12-27T18:50:48.466Z,6.50
2018-12-27T18:53:36.311Z,6.60
2018-12-27T18:56:21.807Z,6.60
2018-12-27T18:59:07.527Z,6.60
2018-12-27T19:01:53.318Z,6.60
2018-12-27T19:04:39.505Z,6.60
2018-12-27T19:07:25.093Z,6.50
2018-12-27T19:10:10.538Z,6.60
2018-12-27T19:13:10.047Z,6.50
2018-12-27T19:15:58.420Z,6.50
2018-12-27T19:18:46.976Z,6.50
2018-12-27T19:22:11.250Z,6.50
2018-12-27T19:24:57.235Z,6.50
2018-12-27T19:27:43.005Z,6.50
2018-12-27T19:30:29.213Z,6.50
2018-12-27T19:33:15.031Z,6.60
2018-12-27T19:36:00.961Z,6.50
2018-12-27T19:38:46.780Z,6.60
2018-12-27T19:41:32.493Z,6.60
2018-12-27T19:44:18.831Z,6.50
2018-12-27T19:47:04.556Z,6.50
2018-12-27T19:49:53.477Z,6.50
2018-12-27T19:52:39.230Z,6.50
2018-12-27T19:55:24.758Z,6.50
2018-12-27T19:58:10.851Z,6.50
2018-12-27T20:00:56.445Z,6.60
2018-12-27T20:03:42.737Z,6.70
2018-12-27T20:06:28.709Z,6.70
2018-12-27T20:09:14.953Z,6.60
2018-12-27T20:12:01.129Z,6.60
2018-12-27T20:14:47.157Z,6.60
2018-12-27T20:17:32.678Z,6.60
2018-12-27T20:20:18.294Z,6.50
2018-12-27T20:23:05.623Z,6.50
2018-12-27T20:25:51.834Z,6.60
2018-12-27T20:28:37.422Z,6.50
2018-12-27T20:31:23.106Z,6.60
2018-12-27T20:34:08.957Z,6.50
2018-12-27T20:36:54.438Z,6.50
2018-12-27T20:39:40.843Z,6.50
2018-12-27T20:42:26.566Z,6.50
2018-12-27T20:45:12.757Z,6.50
2018-12-27T20:47:58.208Z,6.50
2018-12-27T20:50:43.861Z,6.50
2018-12-27T20:53:29.648Z,6.50
2018-12-27T20:56:15.844Z,6.60
2018-12-27T20:59:01.664Z,6.60
2018-12-27T21:01:47.394Z,6.50
2018-12-27T21:04:33.410Z,6.50
2018-12-27T21:07:19.197Z,6.60
2018-12-27T21:10:05.098Z,6.60
2018-12-27T21:12:50.596Z,6.60
2018-12-27T21:15:36.532Z,6.60
2018-12-27T21:18:22.308Z,6.60
2018-12-27T21:21:08.014Z,6.70
2018-12-27T21:23:54.021Z,6.70
2018-12-27T21:26:39.923Z,6.60
2018-12-27T21:29:25.207Z,6.60
2018-12-27T21:32:10.906Z,6.60
2018-12-27T21:34:56.598Z,6.70
2018-12-27T21:37:42.728Z,6.60
2018-12-27T21:40:28.403Z,6.60
2018-12-27T21:43:13.861Z,6.70
2018-12-27T21:45:59.506Z,6.70
2018-12-27T21:48:44.977Z,6.60
2018-12-27T21:51:31.036Z,6.60
2018-12-27T21:54:17.413Z,6.70
2018-12-27T21:57:03.611Z,6.70
2018-12-27T21:59:49.037Z,6.70
2018-12-27T22:02:34.606Z,6.70
2018-12-27T22:05:20.681Z,6.70
2018-12-27T22:08:06.227Z,6.80
2018-12-27T22:10:51.777Z,6.80
2018-12-27T22:13:37.679Z,6.80
2018-12-27T22:16:23.299Z,6.80
2018-12-27T22:19:08.861Z,6.80
2018-12-27T22:21:54.424Z,6.80
2018-12-27T22:24:40.376Z,6.80
2018-12-27T22:27:26.212Z,6.80
2018-12-27T22:30:11.852Z,6.80
2018-12-27T22:32:57.156Z,6.80
2018-12-27T22:35:43.055Z,6.80
2018-12-27T22:38:28.204Z,6.80
2018-12-27T22:41:13.730Z,6.80
2018-12-27T22:43:58.876Z,6.80
2018-12-27T22:46:44.377Z,6.80
2018-12-27T22:49:29.843Z,6.80
2018-12-27T22:52:15.319Z,6.80
2018-12-27T22:55:01.412Z,6.80
2018-12-27T22:57:47.434Z,6.80
2018-12-27T23:00:38.318Z,6.80
2018-12-27T23:03:24.058Z,6.70
2018-12-27T23:06:09.779Z,6.70
2018-12-27T23:08:55.113Z,6.70
2018-12-27T23:11:41.531Z,6.70
2018-12-27T23:14:27.544Z,6.70
2018-12-27T23:17:13.151Z,6.70
2018-12-27T23:19:59.222Z,6.70
2018-12-27T23:22:45.137Z,6.70
2018-12-27T23:25:30.614Z,6.70
2018-12-27T23:28:16.343Z,6.70
2018-12-27T23:31:02.028Z,6.60
2018-12-27T23:33:48.782Z,6.70
2018-12-27T23:36:34.454Z,6.70
2018-12-27T23:39:20.159Z,6.70
2018-12-27T23:42:06.058Z,6.70
2018-12-27T23:44:51.578Z,6.70
2018-12-27T23:47:36.909Z,6.70
2018-12-27T23:50:22.604Z,6.80
2018-12-27T23:53:08.156Z,6.70
2018-12-27T23:55:53.586Z,6.70
2018-12-27T23:58:39.546Z,6.70
